sensor_id;sensor_type;location;lat;lon;timestamp;P1;durP1;ratioP1;P2;durP2;ratioP2
1412;SDS011;701;52.526;13.408;2022-12-07T00:01:14;13.45;;;5.50;;
1412;SDS011;701;52.526;13.408;2022-12-07T00:03:45;13.10;;;6.00;;
1412;SDS011;701;52.526;13.408;2022-12-07T00:06:12;15.00;;;5.93;;
1412;SDS011;701;52.526;13.408;2022-12-07T00:08:40;16.27;;;5.95;;
1412;SDS011;701;52.526;13.408;2022-12-07T00:11:06;12.20;;;5.70;;
1412;SDS011;701;52.526;13.408;2022-12-07T00:13:37;12.97;;;5.67;;
1412;SDS011;701;52.526;13.408;2022-12-07T00:16:04;14.18;;;6.15;;
1412;SDS011;701;52.526;13.408;2022-12-07T00:18:30;12.63;;;5.95;;
1412;SDS011;701;52.526;13.408;2022-12-07T00:21:00;13.15;;;6.07;;
1412;SDS011;701;52.526;13.408;2022-12-07T00:23:30;12.43;;;5.43;;
1412;SDS011;701;52.526;13.408;2022-12-07T00:26:02;12.27;;;5.93;;
1412;SDS011;701;52.526;13.408;2022-12-07T00:28:32;11.95;;;5.55;;
1412;SDS011;701;52.526;13.408;2022-12-07T00:31:03;14.80;;;6.57;;
1412;SDS011;701;52.526;13.408;2022-12-07T00:33:31;13.73;;;5.45;;
1412;SDS011;701;52.526;13.408;2022-12-07T00:35:58;13.75;;;5.97;;
1412;SDS011;701;52.526;13.408;2022-12-07T00:38:24;12.13;;;5.47;;
1412;SDS011;701;52.526;13.408;2022-12-07T00:40:57;13.52;;;5.90;;
1412;SDS011;701;52.526;13.408;2022-12-07T00:43:24;11.32;;;5.57;;
1412;SDS011;701;52.526;13.408;2022-12-07T00:45:50;11.98;;;5.65;;
1412;SDS011;701;52.526;13.408;2022-12-07T00:48:16;13.37;;;5.30;;
1412;SDS011;701;52.526;13.408;2022-12-07T00:50:42;10.30;;;5.03;;
1412;SDS011;701;52.526;13.408;2022-12-07T00:53:08;11.45;;;5.20;;
1412;SDS011;701;52.526;13.408;2022-12-07T00:55:36;12.23;;;5.05;;
1412;SDS011;701;52.526;13.408;2022-12-07T00:58:03;12.27;;;5.47;;
1412;SDS011;701;52.526;13.408;2022-12-07T01:00:29;13.37;;;5.70;;
1412;SDS011;701;52.526;13.408;2022-12-07T01:02:55;11.10;;;5.47;;
1412;SDS011;701;52.526;13.408;2022-12-07T01:05:20;10.45;;;5.20;;
1412;SDS011;701;52.526;13.408;2022-12-07T01:07:46;13.30;;;5.13;;
1412;SDS011;701;52.526;13.408;2022-12-07T01:10:12;11.50;;;5.40;;
1412;SDS011;701;52.526;13.408;2022-12-07T01:12:39;12.23;;;5.43;;
1412;SDS011;701;52.526;13.408;2022-12-07T01:15:06;11.68;;;5.07;;
1412;SDS011;701;52.526;13.408;2022-12-07T01:17:32;14.32;;;5.50;;
1412;SDS011;701;52.526;13.408;2022-12-07T01:19:58;13.27;;;5.30;;
1412;SDS011;701;52.526;13.408;2022-12-07T01:22:24;10.77;;;5.17;;
1412;SDS011;701;52.526;13.408;2022-12-07T01:24:50;11.85;;;5.60;;
1412;SDS011;701;52.526;13.408;2022-12-07T01:27:16;12.48;;;5.40;;
1412;SDS011;701;52.526;13.408;2022-12-07T01:29:42;12.47;;;4.70;;
1412;SDS011;701;52.526;13.408;2022-12-07T01:32:07;11.38;;;5.15;;
1412;SDS011;701;52.526;13.408;2022-12-07T01:34:33;9.83;;;5.10;;
1412;SDS011;701;52.526;13.408;2022-12-07T01:36:59;10.57;;;4.70;;
1412;SDS011;701;52.526;13.408;2022-12-07T01:39:24;11.30;;;5.25;;
1412;SDS011;701;52.526;13.408;2022-12-07T01:41:50;10.70;;;4.83;;
1412;SDS011;701;52.526;13.408;2022-12-07T01:47:00;9.23;;;4.38;;
1412;SDS011;701;52.526;13.408;2022-12-07T01:52:18;9.50;;;4.18;;
1412;SDS011;701;52.526;13.408;2022-12-07T01:54:48;8.52;;;3.72;;
1412;SDS011;701;52.526;13.408;2022-12-07T01:57:18;8.45;;;4.00;;
1412;SDS011;701;52.526;13.408;2022-12-07T01:59:45;9.52;;;4.15;;
1412;SDS011;701;52.526;13.408;2022-12-07T02:02:20;9.17;;;3.77;;
1412;SDS011;701;52.526;13.408;2022-12-07T02:04:52;8.30;;;3.72;;
1412;SDS011;701;52.526;13.408;2022-12-07T02:07:19;10.18;;;4.15;;
1412;SDS011;701;52.526;13.408;2022-12-07T02:09:46;8.73;;;3.80;;
1412;SDS011;701;52.526;13.408;2022-12-07T02:12:12;10.20;;;4.53;;
1412;SDS011;701;52.526;13.408;2022-12-07T02:14:38;7.85;;;3.55;;
1412;SDS011;701;52.526;13.408;2022-12-07T02:17:19;8.30;;;3.80;;
1412;SDS011;701;52.526;13.408;2022-12-07T02:27:43;7.37;;;3.40;;
1412;SDS011;701;52.526;13.408;2022-12-07T02:30:15;8.70;;;3.60;;
1412;SDS011;701;52.526;13.408;2022-12-07T02:40:48;9.97;;;4.13;;
1412;SDS011;701;52.526;13.408;2022-12-07T02:45:50;10.15;;;4.43;;
1412;SDS011;701;52.526;13.408;2022-12-07T02:48:17;9.30;;;4.43;;
1412;SDS011;701;52.526;13.408;2022-12-07T02:50:52;8.55;;;4.30;;
1412;SDS011;701;52.526;13.408;2022-12-07T02:56:06;9.63;;;4.60;;
1412;SDS011;701;52.526;13.408;2022-12-07T03:07:49;9.60;;;4.40;;
1412;SDS011;701;52.526;13.408;2022-12-07T03:13:12;12.88;;;4.82;;
1412;SDS011;701;52.526;13.408;2022-12-07T03:18:27;11.75;;;4.93;;
1412;SDS011;701;52.526;13.408;2022-12-07T03:20:57;10.67;;;4.67;;
1412;SDS011;701;52.526;13.408;2022-12-07T03:23:26;11.00;;;4.60;;
1412;SDS011;701;52.526;13.408;2022-12-07T03:25:55;14.02;;;5.40;;
1412;SDS011;701;52.526;13.408;2022-12-07T03:28:26;11.70;;;5.25;;
1412;SDS011;701;52.526;13.408;2022-12-07T03:30:58;12.93;;;5.35;;
1412;SDS011;701;52.526;13.408;2022-12-07T03:33:44;11.67;;;5.07;;
1412;SDS011;701;52.526;13.408;2022-12-07T03:36:43;11.57;;;5.28;;
1412;SDS011;701;52.526;13.408;2022-12-07T03:39:22;13.75;;;5.30;;
1412;SDS011;701;52.526;13.408;2022-12-07T03:41:49;12.73;;;5.70;;
1412;SDS011;701;52.526;13.408;2022-12-07T03:44:16;14.90;;;5.68;;
1412;SDS011;701;52.526;13.408;2022-12-07T03:46:50;13.07;;;6.20;;
1412;SDS011;701;52.526;13.408;2022-12-07T03:49:25;16.17;;;6.57;;
1412;SDS011;701;52.526;13.408;2022-12-07T03:54:40;15.17;;;5.97;;
1412;SDS011;701;52.526;13.408;2022-12-07T03:57:13;11.85;;;5.53;;
1412;SDS011;701;52.526;13.408;2022-12-07T03:59:39;12.27;;;5.80;;
1412;SDS011;701;52.526;13.408;2022-12-07T04:02:07;12.20;;;5.43;;
1412;SDS011;701;52.526;13.408;2022-12-07T04:04:36;12.43;;;5.32;;
1412;SDS011;701;52.526;13.408;2022-12-07T04:07:01;13.57;;;5.50;;
1412;SDS011;701;52.526;13.408;2022-12-07T04:09:27;13.70;;;6.30;;
1412;SDS011;701;52.526;13.408;2022-12-07T04:11:53;13.10;;;6.10;;
1412;SDS011;701;52.526;13.408;2022-12-07T04:14:19;15.82;;;6.63;;
1412;SDS011;701;52.526;13.408;2022-12-07T04:16:52;13.13;;;5.77;;
1412;SDS011;701;52.526;13.408;2022-12-07T04:19:22;12.73;;;6.35;;
1412;SDS011;701;52.526;13.408;2022-12-07T04:21:54;14.15;;;6.43;;
1412;SDS011;701;52.526;13.408;2022-12-07T04:24:20;14.40;;;6.45;;
1412;SDS011;701;52.526;13.408;2022-12-07T04:26:46;12.77;;;6.28;;
1412;SDS011;701;52.526;13.408;2022-12-07T04:29:13;13.27;;;6.37;;
1412;SDS011;701;52.526;13.408;2022-12-07T04:31:39;15.25;;;6.32;;
1412;SDS011;701;52.526;13.408;2022-12-07T04:34:05;12.85;;;6.57;;
1412;SDS011;701;52.526;13.408;2022-12-07T04:36:32;16.07;;;6.73;;
1412;SDS011;701;52.526;13.408;2022-12-07T04:38:58;15.60;;;7.57;;
1412;SDS011;701;52.526;13.408;2022-12-07T04:41:25;15.57;;;7.13;;
1412;SDS011;701;52.526;13.408;2022-12-07T04:43:59;16.23;;;7.50;;
1412;SDS011;701;52.526;13.408;2022-12-07T04:46:27;15.90;;;7.75;;
1412;SDS011;701;52.526;13.408;2022-12-07T04:48:54;17.50;;;7.60;;
1412;SDS011;701;52.526;13.408;2022-12-07T04:51:22;19.83;;;7.78;;
1412;SDS011;701;52.526;13.408;2022-12-07T04:53:49;22.38;;;7.43;;
1412;SDS011;701;52.526;13.408;2022-12-07T04:56:16;15.82;;;8.05;;
1412;SDS011;701;52.526;13.408;2022-12-07T04:58:43;17.80;;;8.15;;
1412;SDS011;701;52.526;13.408;2022-12-07T05:01:10;18.63;;;9.37;;
1412;SDS011;701;52.526;13.408;2022-12-07T05:03:36;16.50;;;7.65;;
1412;SDS011;701;52.526;13.408;2022-12-07T05:06:02;19.17;;;8.50;;
1412;SDS011;701;52.526;13.408;2022-12-07T05:08:29;17.13;;;8.35;;
1412;SDS011;701;52.526;13.408;2022-12-07T05:10:54;19.23;;;8.60;;
1412;SDS011;701;52.526;13.408;2022-12-07T05:13:20;19.50;;;9.05;;
1412;SDS011;701;52.526;13.408;2022-12-07T05:15:46;26.70;;;11.93;;
1412;SDS011;701;52.526;13.408;2022-12-07T05:18:12;23.30;;;9.20;;
1412;SDS011;701;52.526;13.408;2022-12-07T05:20:39;24.17;;;10.57;;
1412;SDS011;701;52.526;13.408;2022-12-07T05:23:05;20.80;;;9.70;;
1412;SDS011;701;52.526;13.408;2022-12-07T05:25:31;21.40;;;9.50;;
1412;SDS011;701;52.526;13.408;2022-12-07T05:27:57;21.15;;;9.55;;
1412;SDS011;701;52.526;13.408;2022-12-07T05:30:23;22.65;;;9.88;;
1412;SDS011;701;52.526;13.408;2022-12-07T05:32:50;19.70;;;9.47;;
1412;SDS011;701;52.526;13.408;2022-12-07T05:35:16;21.77;;;9.60;;
1412;SDS011;701;52.526;13.408;2022-12-07T05:37:42;21.77;;;9.80;;
1412;SDS011;701;52.526;13.408;2022-12-07T05:40:08;21.63;;;9.97;;
1412;SDS011;701;52.526;13.408;2022-12-07T05:42:34;21.17;;;10.32;;
1412;SDS011;701;52.526;13.408;2022-12-07T05:45:00;23.25;;;10.27;;
1412;SDS011;701;52.526;13.408;2022-12-07T05:47:26;23.92;;;10.30;;
1412;SDS011;701;52.526;13.408;2022-12-07T05:49:51;26.33;;;11.20;;
1412;SDS011;701;52.526;13.408;2022-12-07T05:52:17;23.88;;;10.57;;
1412;SDS011;701;52.526;13.408;2022-12-07T05:54:43;24.53;;;10.87;;
1412;SDS011;701;52.526;13.408;2022-12-07T05:57:09;25.95;;;10.80;;
1412;SDS011;701;52.526;13.408;2022-12-07T05:59:35;24.95;;;10.55;;
1412;SDS011;701;52.526;13.408;2022-12-07T06:02:02;22.63;;;11.10;;
1412;SDS011;701;52.526;13.408;2022-12-07T06:04:31;31.00;;;10.83;;
1412;SDS011;701;52.526;13.408;2022-12-07T06:06:59;25.67;;;10.38;;
1412;SDS011;701;52.526;13.408;2022-12-07T06:09:25;24.75;;;11.23;;
1412;SDS011;701;52.526;13.408;2022-12-07T06:11:52;23.23;;;10.80;;
1412;SDS011;701;52.526;13.408;2022-12-07T06:14:37;23.20;;;10.57;;
1412;SDS011;701;52.526;13.408;2022-12-07T06:17:02;24.80;;;11.02;;
1412;SDS011;701;52.526;13.408;2022-12-07T06:19:28;26.83;;;10.73;;
1412;SDS011;701;52.526;13.408;2022-12-07T06:21:54;29.17;;;11.43;;
1412;SDS011;701;52.526;13.408;2022-12-07T06:24:21;25.02;;;10.90;;
1412;SDS011;701;52.526;13.408;2022-12-07T06:26:47;22.58;;;10.50;;
1412;SDS011;701;52.526;13.408;2022-12-07T06:29:14;22.15;;;10.73;;
1412;SDS011;701;52.526;13.408;2022-12-07T06:31:40;25.97;;;11.60;;
1412;SDS011;701;52.526;13.408;2022-12-07T06:34:09;28.00;;;11.82;;
1412;SDS011;701;52.526;13.408;2022-12-07T06:36:36;24.05;;;10.77;;
1412;SDS011;701;52.526;13.408;2022-12-07T06:39:02;24.27;;;11.25;;
1412;SDS011;701;52.526;13.408;2022-12-07T06:41:29;23.60;;;11.15;;
1412;SDS011;701;52.526;13.408;2022-12-07T06:43:55;23.53;;;9.77;;
1412;SDS011;701;52.526;13.408;2022-12-07T06:46:21;22.77;;;9.45;;
1412;SDS011;701;52.526;13.408;2022-12-07T06:48:47;22.67;;;10.03;;
1412;SDS011;701;52.526;13.408;2022-12-07T06:51:12;23.77;;;10.43;;
1412;SDS011;701;52.526;13.408;2022-12-07T06:53:38;22.70;;;10.55;;
1412;SDS011;701;52.526;13.408;2022-12-07T06:56:04;21.73;;;9.10;;
1412;SDS011;701;52.526;13.408;2022-12-07T06:58:30;23.73;;;10.40;;
1412;SDS011;701;52.526;13.408;2022-12-07T07:00:56;23.92;;;10.82;;
1412;SDS011;701;52.526;13.408;2022-12-07T07:03:22;25.07;;;9.67;;
1412;SDS011;701;52.526;13.408;2022-12-07T07:05:48;23.67;;;10.57;;
1412;SDS011;701;52.526;13.408;2022-12-07T07:08:14;23.00;;;10.60;;
1412;SDS011;701;52.526;13.408;2022-12-07T07:10:40;23.48;;;10.82;;
1412;SDS011;701;52.526;13.408;2022-12-07T07:13:06;26.08;;;10.93;;
1412;SDS011;701;52.526;13.408;2022-12-07T07:15:32;22.73;;;10.27;;
1412;SDS011;701;52.526;13.408;2022-12-07T07:17:58;23.50;;;10.23;;
1412;SDS011;701;52.526;13.408;2022-12-07T07:20:24;25.65;;;11.05;;
1412;SDS011;701;52.526;13.408;2022-12-07T07:22:53;25.15;;;11.30;;
1412;SDS011;701;52.526;13.408;2022-12-07T07:25:31;27.23;;;11.73;;
1412;SDS011;701;52.526;13.408;2022-12-07T07:27:57;26.50;;;10.95;;
1412;SDS011;701;52.526;13.408;2022-12-07T07:30:23;27.17;;;10.90;;
1412;SDS011;701;52.526;13.408;2022-12-07T07:32:50;26.40;;;10.27;;
1412;SDS011;701;52.526;13.408;2022-12-07T07:35:15;30.73;;;11.32;;
1412;SDS011;701;52.526;13.408;2022-12-07T07:37:41;23.83;;;10.17;;
1412;SDS011;701;52.526;13.408;2022-12-07T07:40:07;20.90;;;9.80;;
1412;SDS011;701;52.526;13.408;2022-12-07T07:42:34;21.98;;;9.73;;
1412;SDS011;701;52.526;13.408;2022-12-07T07:45:00;21.50;;;9.35;;
1412;SDS011;701;52.526;13.408;2022-12-07T07:47:26;21.40;;;8.80;;
1412;SDS011;701;52.526;13.408;2022-12-07T07:49:51;22.50;;;9.48;;
1412;SDS011;701;52.526;13.408;2022-12-07T07:52:17;17.63;;;7.97;;
1412;SDS011;701;52.526;13.408;2022-12-07T07:54:43;19.40;;;8.70;;
1412;SDS011;701;52.526;13.408;2022-12-07T07:57:09;18.50;;;8.03;;
1412;SDS011;701;52.526;13.408;2022-12-07T07:59:34;19.15;;;8.38;;
1412;SDS011;701;52.526;13.408;2022-12-07T08:02:00;19.20;;;8.13;;
1412;SDS011;701;52.526;13.408;2022-12-07T08:04:26;19.02;;;8.00;;
1412;SDS011;701;52.526;13.408;2022-12-07T08:06:51;21.27;;;7.57;;
1412;SDS011;701;52.526;13.408;2022-12-07T08:09:17;18.07;;;7.63;;
1412;SDS011;701;52.526;13.408;2022-12-07T08:11:43;15.50;;;6.85;;
1412;SDS011;701;52.526;13.408;2022-12-07T08:14:10;15.70;;;6.28;;
1412;SDS011;701;52.526;13.408;2022-12-07T08:16:37;16.30;;;6.68;;
1412;SDS011;701;52.526;13.408;2022-12-07T08:19:04;18.10;;;6.35;;
1412;SDS011;701;52.526;13.408;2022-12-07T08:21:30;13.60;;;6.18;;
1412;SDS011;701;52.526;13.408;2022-12-07T08:23:56;15.98;;;6.13;;
1412;SDS011;701;52.526;13.408;2022-12-07T08:26:22;14.13;;;5.47;;
1412;SDS011;701;52.526;13.408;2022-12-07T08:28:48;13.27;;;5.30;;
1412;SDS011;701;52.526;13.408;2022-12-07T08:31:15;14.37;;;5.50;;
1412;SDS011;701;52.526;13.408;2022-12-07T08:33:44;10.77;;;4.45;;
1412;SDS011;701;52.526;13.408;2022-12-07T08:36:11;10.52;;;4.70;;
1412;SDS011;701;52.526;13.408;2022-12-07T08:38:38;11.43;;;4.85;;
1412;SDS011;701;52.526;13.408;2022-12-07T08:41:05;10.93;;;4.32;;
1412;SDS011;701;52.526;13.408;2022-12-07T08:43:31;9.73;;;3.53;;
1412;SDS011;701;52.526;13.408;2022-12-07T08:48:36;10.38;;;3.70;;
1412;SDS011;701;52.526;13.408;2022-12-07T08:51:07;7.57;;;3.33;;
1412;SDS011;701;52.526;13.408;2022-12-07T08:53:33;8.57;;;3.37;;
1412;SDS011;701;52.526;13.408;2022-12-07T08:56:00;6.57;;;3.03;;
1412;SDS011;701;52.526;13.408;2022-12-07T08:58:26;9.65;;;3.10;;
1412;SDS011;701;52.526;13.408;2022-12-07T09:00:52;8.15;;;2.83;;
1412;SDS011;701;52.526;13.408;2022-12-07T09:03:17;6.20;;;2.40;;
1412;SDS011;701;52.526;13.408;2022-12-07T09:05:43;6.45;;;2.63;;
1412;SDS011;701;52.526;13.408;2022-12-07T09:08:09;5.68;;;2.40;;
1412;SDS011;701;52.526;13.408;2022-12-07T09:10:35;6.67;;;2.47;;
1412;SDS011;701;52.526;13.408;2022-12-07T09:13:01;5.55;;;2.25;;
1412;SDS011;701;52.526;13.408;2022-12-07T09:15:27;6.57;;;2.47;;
1412;SDS011;701;52.526;13.408;2022-12-07T09:17:54;6.70;;;2.10;;
1412;SDS011;701;52.526;13.408;2022-12-07T09:20:20;6.85;;;2.53;;
1412;SDS011;701;52.526;13.408;2022-12-07T09:22:46;5.90;;;2.20;;
1412;SDS011;701;52.526;13.408;2022-12-07T09:25:11;6.07;;;1.85;;
1412;SDS011;701;52.526;13.408;2022-12-07T09:27:37;4.83;;;1.67;;
1412;SDS011;701;52.526;13.408;2022-12-07T09:30:03;5.03;;;1.60;;
1412;SDS011;701;52.526;13.408;2022-12-07T09:32:30;6.00;;;2.20;;
1412;SDS011;701;52.526;13.408;2022-12-07T09:34:56;5.80;;;2.00;;
1412;SDS011;701;52.526;13.408;2022-12-07T09:37:21;5.95;;;2.10;;
1412;SDS011;701;52.526;13.408;2022-12-07T09:39:47;5.60;;;2.03;;
1412;SDS011;701;52.526;13.408;2022-12-07T09:42:19;5.38;;;2.22;;
1412;SDS011;701;52.526;13.408;2022-12-07T09:44:54;5.47;;;2.00;;
1412;SDS011;701;52.526;13.408;2022-12-07T09:47:20;5.72;;;2.10;;
1412;SDS011;701;52.526;13.408;2022-12-07T09:49:47;5.70;;;2.30;;
1412;SDS011;701;52.526;13.408;2022-12-07T09:52:17;14.57;;;8.57;;
1412;SDS011;701;52.526;13.408;2022-12-07T09:54:48;12.70;;;7.28;;
1412;SDS011;701;52.526;13.408;2022-12-07T09:57:15;11.82;;;5.93;;
1412;SDS011;701;52.526;13.408;2022-12-07T09:59:42;12.80;;;6.53;;
1412;SDS011;701;52.526;13.408;2022-12-07T10:02:19;7.55;;;2.78;;
1412;SDS011;701;52.526;13.408;2022-12-07T10:05:03;6.43;;;1.92;;
1412;SDS011;701;52.526;13.408;2022-12-07T10:07:32;5.82;;;1.70;;
1412;SDS011;701;52.526;13.408;2022-12-07T10:09:58;4.35;;;1.50;;
1412;SDS011;701;52.526;13.408;2022-12-07T10:12:24;6.22;;;2.20;;
1412;SDS011;701;52.526;13.408;2022-12-07T10:14:54;6.82;;;2.90;;
1412;SDS011;701;52.526;13.408;2022-12-07T10:20:12;6.22;;;3.00;;
1412;SDS011;701;52.526;13.408;2022-12-07T10:23:00;8.13;;;2.53;;
1412;SDS011;701;52.526;13.408;2022-12-07T10:25:35;5.82;;;2.58;;
1412;SDS011;701;52.526;13.408;2022-12-07T10:30:50;6.67;;;2.07;;
1412;SDS011;701;52.526;13.408;2022-12-07T10:35:54;6.68;;;2.05;;
1412;SDS011;701;52.526;13.408;2022-12-07T10:38:20;8.38;;;2.88;;
1412;SDS011;701;52.526;13.408;2022-12-07T10:40:46;6.67;;;2.40;;
1412;SDS011;701;52.526;13.408;2022-12-07T10:45:43;5.50;;;2.10;;
1412;SDS011;701;52.526;13.408;2022-12-07T10:48:16;7.57;;;2.70;;
1412;SDS011;701;52.526;13.408;2022-12-07T10:50:58;6.72;;;2.10;;
1412;SDS011;701;52.526;13.408;2022-12-07T11:05:25;10.57;;;3.13;;
1412;SDS011;701;52.526;13.408;2022-12-07T11:08:33;8.18;;;3.10;;
1412;SDS011;701;52.526;13.408;2022-12-07T11:14:00;12.30;;;3.00;;
1412;SDS011;701;52.526;13.408;2022-12-07T11:17:02;8.43;;;3.10;;
1412;SDS011;701;52.526;13.408;2022-12-07T11:22:23;13.50;;;3.15;;
1412;SDS011;701;52.526;13.408;2022-12-07T11:33:57;8.30;;;3.33;;
1412;SDS011;701;52.526;13.408;2022-12-07T11:36:39;6.72;;;2.83;;
1412;SDS011;701;52.526;13.408;2022-12-07T11:41:36;8.20;;;3.20;;
1412;SDS011;701;52.526;13.408;2022-12-07T11:44:14;8.38;;;3.10;;
1412;SDS011;701;52.526;13.408;2022-12-07T11:46:49;7.70;;;3.17;;
1412;SDS011;701;52.526;13.408;2022-12-07T11:58:08;7.75;;;3.30;;
1412;SDS011;701;52.526;13.408;2022-12-07T12:00:47;9.10;;;3.60;;
1412;SDS011;701;52.526;13.408;2022-12-07T12:03:20;8.45;;;2.95;;
1412;SDS011;701;52.526;13.408;2022-12-07T12:05:57;9.25;;;3.28;;
1412;SDS011;701;52.526;13.408;2022-12-07T12:13:29;7.85;;;2.90;;
1412;SDS011;701;52.526;13.408;2022-12-07T12:18:53;10.65;;;3.00;;
1412;SDS011;701;52.526;13.408;2022-12-07T12:21:31;8.68;;;3.30;;
1412;SDS011;701;52.526;13.408;2022-12-07T12:26:29;10.75;;;3.42;;
1412;SDS011;701;52.526;13.408;2022-12-07T12:29:02;8.37;;;2.73;;
1412;SDS011;701;52.526;13.408;2022-12-07T12:31:43;14.77;;;2.97;;
1412;SDS011;701;52.526;13.408;2022-12-07T12:37:13;13.07;;;3.90;;
1412;SDS011;701;52.526;13.408;2022-12-07T12:42:47;8.60;;;2.37;;
1412;SDS011;701;52.526;13.408;2022-12-07T12:45:18;6.22;;;2.50;;
1412;SDS011;701;52.526;13.408;2022-12-07T12:47:59;8.30;;;2.70;;
1412;SDS011;701;52.526;13.408;2022-12-07T12:52:53;8.52;;;3.38;;
1412;SDS011;701;52.526;13.408;2022-12-07T12:55:20;6.53;;;2.37;;
1412;SDS011;701;52.526;13.408;2022-12-07T13:00:43;12.82;;;2.33;;
1412;SDS011;701;52.526;13.408;2022-12-07T13:03:22;8.73;;;2.28;;
1412;SDS011;701;52.526;13.408;2022-12-07T13:08:58;10.27;;;2.43;;
1412;SDS011;701;52.526;13.408;2022-12-07T13:11:30;8.23;;;2.53;;
1412;SDS011;701;52.526;13.408;2022-12-07T13:20:07;9.68;;;2.90;;
1412;SDS011;701;52.526;13.408;2022-12-07T13:25:05;10.35;;;2.30;;
1412;SDS011;701;52.526;13.408;2022-12-07T13:28:00;7.22;;;2.40;;
1412;SDS011;701;52.526;13.408;2022-12-07T13:30:33;8.60;;;2.20;;
1412;SDS011;701;52.526;13.408;2022-12-07T13:33:09;6.47;;;2.17;;
1412;SDS011;701;52.526;13.408;2022-12-07T13:35:37;8.97;;;2.10;;
1412;SDS011;701;52.526;13.408;2022-12-07T13:38:13;8.13;;;2.10;;
1412;SDS011;701;52.526;13.408;2022-12-07T13:40:59;11.93;;;2.30;;
1412;SDS011;701;52.526;13.408;2022-12-07T13:43:49;9.57;;;2.40;;
1412;SDS011;701;52.526;13.408;2022-12-07T13:46:19;8.55;;;2.25;;
1412;SDS011;701;52.526;13.408;2022-12-07T13:48:51;6.23;;;2.20;;
1412;SDS011;701;52.526;13.408;2022-12-07T13:51:27;5.93;;;2.10;;
1412;SDS011;701;52.526;13.408;2022-12-07T13:54:08;7.93;;;2.20;;
1412;SDS011;701;52.526;13.408;2022-12-07T13:56:36;10.20;;;2.80;;
1412;SDS011;701;52.526;13.408;2022-12-07T13:59:02;10.93;;;2.10;;
1412;SDS011;701;52.526;13.408;2022-12-07T14:01:50;10.98;;;2.20;;
1412;SDS011;701;52.526;13.408;2022-12-07T14:07:00;13.85;;;4.18;;
1412;SDS011;701;52.526;13.408;2022-12-07T14:09:52;8.75;;;2.10;;
1412;SDS011;701;52.526;13.408;2022-12-07T14:12:26;9.63;;;1.87;;
1412;SDS011;701;52.526;13.408;2022-12-07T14:14:53;8.75;;;2.13;;
1412;SDS011;701;52.526;13.408;2022-12-07T14:17:21;8.52;;;1.90;;
1412;SDS011;701;52.526;13.408;2022-12-07T14:19:55;9.00;;;2.50;;
1412;SDS011;701;52.526;13.408;2022-12-07T14:25:00;8.00;;;1.97;;
1412;SDS011;701;52.526;13.408;2022-12-07T14:27:38;8.68;;;2.40;;
1412;SDS011;701;52.526;13.408;2022-12-07T14:30:04;6.85;;;1.85;;
1412;SDS011;701;52.526;13.408;2022-12-07T14:32:31;8.27;;;2.03;;
1412;SDS011;701;52.526;13.408;2022-12-07T14:35:01;9.25;;;2.40;;
1412;SDS011;701;52.526;13.408;2022-12-07T14:37:35;13.00;;;2.30;;
1412;SDS011;701;52.526;13.408;2022-12-07T14:40:01;11.55;;;2.30;;
1412;SDS011;701;52.526;13.408;2022-12-07T14:42:28;7.95;;;2.47;;
1412;SDS011;701;52.526;13.408;2022-12-07T14:44:56;9.15;;;2.00;;
1412;SDS011;701;52.526;13.408;2022-12-07T14:47:23;9.05;;;2.58;;
1412;SDS011;701;52.526;13.408;2022-12-07T14:49:50;7.47;;;2.00;;
1412;SDS011;701;52.526;13.408;2022-12-07T14:52:19;11.43;;;2.50;;
1412;SDS011;701;52.526;13.408;2022-12-07T14:54:48;9.38;;;2.42;;
1412;SDS011;701;52.526;13.408;2022-12-07T14:57:14;11.17;;;2.30;;
1412;SDS011;701;52.526;13.408;2022-12-07T14:59:39;10.82;;;2.00;;
1412;SDS011;701;52.526;13.408;2022-12-07T15:02:05;10.65;;;2.47;;
1412;SDS011;701;52.526;13.408;2022-12-07T15:04:32;8.73;;;2.27;;
1412;SDS011;701;52.526;13.408;2022-12-07T15:06:59;9.55;;;2.60;;
1412;SDS011;701;52.526;13.408;2022-12-07T15:09:27;10.88;;;2.50;;
1412;SDS011;701;52.526;13.408;2022-12-07T15:11:52;10.30;;;2.20;;
1412;SDS011;701;52.526;13.408;2022-12-07T15:14:18;6.45;;;2.17;;
1412;SDS011;701;52.526;13.408;2022-12-07T15:16:44;10.37;;;2.17;;
1412;SDS011;701;52.526;13.408;2022-12-07T15:19:14;10.82;;;2.30;;
1412;SDS011;701;52.526;13.408;2022-12-07T15:21:41;10.32;;;2.20;;
1412;SDS011;701;52.526;13.408;2022-12-07T15:24:08;9.30;;;2.13;;
1412;SDS011;701;52.526;13.408;2022-12-07T15:26:35;9.55;;;2.22;;
1412;SDS011;701;52.526;13.408;2022-12-07T15:29:02;9.85;;;2.42;;
1412;SDS011;701;52.526;13.408;2022-12-07T15:31:28;9.48;;;1.92;;
1412;SDS011;701;52.526;13.408;2022-12-07T15:33:54;8.82;;;1.73;;
1412;SDS011;701;52.526;13.408;2022-12-07T15:36:20;10.00;;;1.90;;
1412;SDS011;701;52.526;13.408;2022-12-07T15:38:48;7.88;;;2.08;;
1412;SDS011;701;52.526;13.408;2022-12-07T15:41:14;7.32;;;1.80;;
1412;SDS011;701;52.526;13.408;2022-12-07T15:43:40;7.50;;;1.87;;
1412;SDS011;701;52.526;13.408;2022-12-07T15:46:31;7.80;;;2.45;;
1412;SDS011;701;52.526;13.408;2022-12-07T15:48:58;7.57;;;1.80;;
1412;SDS011;701;52.526;13.408;2022-12-07T15:51:24;12.07;;;2.65;;
1412;SDS011;701;52.526;13.408;2022-12-07T15:53:50;6.77;;;2.47;;
1412;SDS011;701;52.526;13.408;2022-12-07T15:56:16;11.20;;;2.28;;
1412;SDS011;701;52.526;13.408;2022-12-07T15:58:41;14.88;;;3.38;;
1412;SDS011;701;52.526;13.408;2022-12-07T16:01:11;13.80;;;2.53;;
1412;SDS011;701;52.526;13.408;2022-12-07T16:03:38;10.82;;;2.40;;
1412;SDS011;701;52.526;13.408;2022-12-07T16:06:04;11.35;;;2.58;;
1412;SDS011;701;52.526;13.408;2022-12-07T16:08:31;8.77;;;2.47;;
1412;SDS011;701;52.526;13.408;2022-12-07T16:10:56;11.87;;;2.63;;
1412;SDS011;701;52.526;13.408;2022-12-07T16:13:22;12.90;;;2.90;;
1412;SDS011;701;52.526;13.408;2022-12-07T16:15:48;9.90;;;2.50;;
1412;SDS011;701;52.526;13.408;2022-12-07T16:18:14;10.52;;;2.28;;
1412;SDS011;701;52.526;13.408;2022-12-07T16:20:39;17.47;;;2.23;;
1412;SDS011;701;52.526;13.408;2022-12-07T16:23:05;8.60;;;2.22;;
1412;SDS011;701;52.526;13.408;2022-12-07T16:25:32;7.77;;;2.30;;
1412;SDS011;701;52.526;13.408;2022-12-07T16:27:58;7.72;;;2.35;;
1412;SDS011;701;52.526;13.408;2022-12-07T16:30:24;11.25;;;2.50;;
1412;SDS011;701;52.526;13.408;2022-12-07T16:32:50;11.17;;;2.63;;
1412;SDS011;701;52.526;13.408;2022-12-07T16:35:16;10.57;;;2.00;;
1412;SDS011;701;52.526;13.408;2022-12-07T16:37:42;8.88;;;2.22;;
1412;SDS011;701;52.526;13.408;2022-12-07T16:40:08;9.27;;;2.60;;
1412;SDS011;701;52.526;13.408;2022-12-07T16:42:35;8.48;;;2.22;;
1412;SDS011;701;52.526;13.408;2022-12-07T16:45:01;14.40;;;3.30;;
1412;SDS011;701;52.526;13.408;2022-12-07T16:47:28;10.23;;;2.67;;
1412;SDS011;701;52.526;13.408;2022-12-07T16:49:53;8.50;;;2.23;;
1412;SDS011;701;52.526;13.408;2022-12-07T16:52:20;8.07;;;2.70;;
1412;SDS011;701;52.526;13.408;2022-12-07T16:54:47;9.13;;;2.22;;
1412;SDS011;701;52.526;13.408;2022-12-07T16:57:14;13.25;;;2.92;;
1412;SDS011;701;52.526;13.408;2022-12-07T16:59:40;11.38;;;2.38;;
1412;SDS011;701;52.526;13.408;2022-12-07T17:02:05;11.90;;;3.07;;
1412;SDS011;701;52.526;13.408;2022-12-07T17:04:32;9.73;;;3.45;;
1412;SDS011;701;52.526;13.408;2022-12-07T17:06:58;9.95;;;3.17;;
1412;SDS011;701;52.526;13.408;2022-12-07T17:09:24;12.63;;;3.00;;
1412;SDS011;701;52.526;13.408;2022-12-07T17:11:50;7.65;;;2.45;;
1412;SDS011;701;52.526;13.408;2022-12-07T17:14:17;11.05;;;2.92;;
1412;SDS011;701;52.526;13.408;2022-12-07T17:17:01;9.67;;;2.50;;
1412;SDS011;701;52.526;13.408;2022-12-07T17:19:27;11.02;;;2.80;;
1412;SDS011;701;52.526;13.408;2022-12-07T17:21:52;7.13;;;2.83;;
1412;SDS011;701;52.526;13.408;2022-12-07T17:24:18;12.27;;;3.40;;
1412;SDS011;701;52.526;13.408;2022-12-07T17:26:44;13.13;;;3.07;;
1412;SDS011;701;52.526;13.408;2022-12-07T17:29:12;10.35;;;3.17;;